createdAt,value
2018-05-09T00:01:54.059Z,11.60
2018-05-09T00:04:21.443Z,12.50
2018-05-09T00:06:48.834Z,12.50
2018-05-09T00:09:16.216Z,12.37
2018-05-09T00:11:43.603Z,12.40
2018-05-09T00:14:10.986Z,12.50
2018-05-09T00:16:38.371Z,12.27
2018-05-09T00:19:05.756Z,11.87
2018-05-09T00:21:33.146Z,11.50
2018-05-09T00:24:00.567Z,11.33
2018-05-09T00:26:27.958Z,12.00
2018-05-09T00:28:55.343Z,12.37
2018-05-09T00:31:22.723Z,12.90
2018-05-09T00:33:50.120Z,11.70
2018-05-09T00:36:17.508Z,11.80
2018-05-09T00:38:44.887Z,12.10
2018-05-09T00:41:12.273Z,12.70
2018-05-09T00:43:39.655Z,13.40
2018-05-09T00:46:07.044Z,13.43
2018-05-09T00:48:34.428Z,12.40
2018-05-09T00:51:01.811Z,12.87
2018-05-09T00:53:29.207Z,12.73
2018-05-09T00:55:56.594Z,12.20
2018-05-09T00:58:23.976Z,12.60
2018-05-09T01:00:51.363Z,12.40
2018-05-09T01:03:18.746Z,12.03
2018-05-09T01:05:46.187Z,13.13
2018-05-09T01:08:13.567Z,12.73
2018-05-09T01:10:41.035Z,13.30
2018-05-09T01:13:08.471Z,12.80
2018-05-09T01:15:36.230Z,13.13
2018-05-09T01:18:03.615Z,12.53
2018-05-09T01:20:30.994Z,13.20
2018-05-09T01:22:58.387Z,12.73
2018-05-09T01:25:25.763Z,12.40
2018-05-09T01:27:53.151Z,12.77
2018-05-09T01:30:20.535Z,11.60
2018-05-09T01:32:47.934Z,12.70
2018-05-09T01:35:15.321Z,12.60
2018-05-09T01:37:42.711Z,12.50
2018-05-09T01:40:10.091Z,12.60
2018-05-09T01:42:37.483Z,12.00
2018-05-09T01:45:04.875Z,12.67
2018-05-09T01:47:32.267Z,12.70
2018-05-09T01:49:59.656Z,12.63
2018-05-09T01:52:27.047Z,12.60
2018-05-09T01:54:54.429Z,12.97
2018-05-09T01:57:21.810Z,13.20
2018-05-09T01:59:49.207Z,12.60
2018-05-09T02:02:16.607Z,13.13
2018-05-09T02:04:43.991Z,13.10
2018-05-09T02:07:11.384Z,13.00
2018-05-09T02:09:38.759Z,12.73
2018-05-09T02:12:06.148Z,12.60
2018-05-09T02:14:33.539Z,12.80
2018-05-09T02:17:00.923Z,12.90
2018-05-09T02:19:28.307Z,13.07
2018-05-09T02:21:55.719Z,13.07
2018-05-09T02:24:23.103Z,13.03
2018-05-09T02:26:50.493Z,12.77
2018-05-09T02:29:17.875Z,12.40
2018-05-09T02:31:45.261Z,12.83
2018-05-09T02:34:12.656Z,13.20
2018-05-09T02:36:40.036Z,12.50
2018-05-09T02:39:07.435Z,13.27
2018-05-09T02:41:34.825Z,13.30
2018-05-09T02:44:02.199Z,13.57
2018-05-09T02:46:29.598Z,13.03
2018-05-09T02:48:56.986Z,12.90
2018-05-09T02:51:24.366Z,13.23
2018-05-09T02:53:51.757Z,13.13
2018-05-09T02:56:19.143Z,13.43
2018-05-09T02:58:46.531Z,12.90
2018-05-09T03:01:14.272Z,12.70
2018-05-09T03:03:41.658Z,12.37
2018-05-09T03:06:09.035Z,12.30
2018-05-09T03:08:36.423Z,12.50
2018-05-09T03:11:03.801Z,12.53
2018-05-09T03:13:31.192Z,12.60
2018-05-09T03:15:58.574Z,12.60
2018-05-09T03:18:25.959Z,12.00
2018-05-09T03:20:53.343Z,12.63
2018-05-09T03:23:20.737Z,13.10
2018-05-09T03:25:48.127Z,13.03
2018-05-09T03:28:15.771Z,13.10
2018-05-09T03:30:43.159Z,13.40
2018-05-09T03:33:10.546Z,13.33
2018-05-09T03:35:37.927Z,12.27
2018-05-09T03:38:05.315Z,12.67
2018-05-09T03:40:32.701Z,12.30
2018-05-09T03:43:00.083Z,12.93
2018-05-09T03:45:27.479Z,12.57
2018-05-09T03:47:54.867Z,12.20
2018-05-09T03:50:22.267Z,13.30
2018-05-09T03:52:49.651Z,12.70
2018-05-09T03:55:17.039Z,12.77
2018-05-09T03:57:44.427Z,13.33
2018-05-09T04:00:11.820Z,12.30
2018-05-09T04:02:50.943Z,12.57
2018-05-09T04:05:30.199Z,11.50
2018-05-09T04:08:09.356Z,11.63
2018-05-09T04:10:36.759Z,11.63
2018-05-09T04:13:04.220Z,11.43
2018-05-09T04:15:31.530Z,12.27
2018-05-09T04:17:58.994Z,11.70
2018-05-09T04:20:26.379Z,11.40
2018-05-09T04:22:53.839Z,10.90
2018-05-09T04:25:21.227Z,11.80
2018-05-09T04:27:48.609Z,12.07
2018-05-09T04:30:15.999Z,13.10
2018-05-09T04:32:43.387Z,11.10
2018-05-09T04:35:10.770Z,11.00
2018-05-09T04:37:38.159Z,11.87
2018-05-09T04:40:05.548Z,11.70
2018-05-09T04:42:32.932Z,11.30
2018-05-09T04:45:00.320Z,9.90
2018-05-09T04:47:27.704Z,10.73
2018-05-09T04:49:55.099Z,11.73
2018-05-09T04:52:22.481Z,12.43
2018-05-09T04:54:49.870Z,12.13
2018-05-09T04:57:17.259Z,11.37
2018-05-09T04:59:44.646Z,11.67
2018-05-09T05:02:12.040Z,11.67
2018-05-09T05:04:39.422Z,11.27
2018-05-09T05:07:06.851Z,11.53
2018-05-09T05:09:34.187Z,13.40
2018-05-09T05:12:01.599Z,12.00
2018-05-09T05:14:28.991Z,12.67
2018-05-09T05:16:56.378Z,11.80
2018-05-09T05:19:23.771Z,12.00
2018-05-09T05:21:51.151Z,11.30
2018-05-09T05:24:18.543Z,11.57
2018-05-09T05:26:45.928Z,12.10
2018-05-09T05:29:13.314Z,11.97
2018-05-09T05:31:40.699Z,11.80
2018-05-09T05:34:08.112Z,11.37
2018-05-09T05:36:35.491Z,10.47
2018-05-09T05:39:02.885Z,11.63
2018-05-09T05:41:30.263Z,12.20
2018-05-09T05:43:57.652Z,13.43
2018-05-09T05:46:25.044Z,12.40
2018-05-09T05:48:52.423Z,11.80
2018-05-09T05:51:19.807Z,11.67
2018-05-09T05:53:47.186Z,11.97
2018-05-09T05:56:14.576Z,12.63
2018-05-09T05:58:41.962Z,11.90
2018-05-09T06:01:09.367Z,11.87
2018-05-09T06:03:36.754Z,12.63
2018-05-09T06:06:04.153Z,11.30
2018-05-09T06:08:31.547Z,11.20
2018-05-09T06:10:58.930Z,11.33
2018-05-09T06:13:26.328Z,11.83
2018-05-09T06:15:53.710Z,11.33
2018-05-09T06:18:21.122Z,11.83
2018-05-09T06:20:48.551Z,13.23
2018-05-09T06:23:15.924Z,11.87
2018-05-09T06:25:43.311Z,12.80
2018-05-09T06:28:10.705Z,12.43
2018-05-09T06:30:38.145Z,12.30
2018-05-09T06:33:05.523Z,10.90
2018-05-09T06:35:32.974Z,12.33
2018-05-09T06:38:00.359Z,12.67
2018-05-09T06:40:27.751Z,12.13
2018-05-09T06:42:55.138Z,11.97
2018-05-09T06:45:22.518Z,12.20
2018-05-09T06:47:49.907Z,12.93
2018-05-09T06:50:17.300Z,12.73
2018-05-09T06:52:44.679Z,12.90
2018-05-09T06:55:12.067Z,13.17
2018-05-09T06:57:39.481Z,12.00
2018-05-09T07:00:06.872Z,12.00
2018-05-09T07:02:34.257Z,12.97
2018-05-09T07:05:01.631Z,11.90
2018-05-09T07:07:29.022Z,12.03
2018-05-09T07:09:56.419Z,12.40
2018-05-09T07:12:23.811Z,13.10
2018-05-09T07:14:51.199Z,12.73
2018-05-09T07:17:18.587Z,12.77
2018-05-09T07:19:45.973Z,12.50
2018-05-09T07:22:13.370Z,12.43
2018-05-09T07:24:40.740Z,12.60
2018-05-09T07:27:08.148Z,12.50
2018-05-09T07:29:35.531Z,12.20
2018-05-09T07:32:02.923Z,12.00
2018-05-09T07:34:30.303Z,11.70
2018-05-09T07:36:57.695Z,11.90
2018-05-09T07:39:25.084Z,12.10
2018-05-09T07:41:52.471Z,12.33
2018-05-09T07:44:19.855Z,11.70
2018-05-09T07:46:47.251Z,12.80
2018-05-09T07:49:14.634Z,12.27
2018-05-09T07:51:42.027Z,10.90
2018-05-09T07:54:09.417Z,11.23
2018-05-09T07:56:36.799Z,11.97
2018-05-09T07:59:04.191Z,10.90
2018-05-09T08:01:31.571Z,12.00
2018-05-09T08:03:58.978Z,10.93
2018-05-09T08:06:26.359Z,10.90
2018-05-09T08:08:53.751Z,9.90
2018-05-09T08:11:21.130Z,10.90
2018-05-09T08:13:48.515Z,11.13
2018-05-09T08:16:15.893Z,9.93
2018-05-09T08:18:43.287Z,10.87
2018-05-09T08:21:10.674Z,10.37
2018-05-09T08:23:38.064Z,11.30
2018-05-09T08:26:05.446Z,10.70
2018-05-09T08:28:32.835Z,12.33
2018-05-09T08:31:00.218Z,12.37
2018-05-09T08:33:27.603Z,12.37
2018-05-09T08:35:54.986Z,12.07
2018-05-09T08:38:22.370Z,11.17
2018-05-09T08:40:49.765Z,11.60
2018-05-09T08:43:17.249Z,12.63
2018-05-09T08:45:44.559Z,11.57
2018-05-09T08:48:11.940Z,12.07
2018-05-09T08:50:39.322Z,11.40
2018-05-09T08:53:06.715Z,11.53
2018-05-09T08:55:34.138Z,10.50
2018-05-09T08:58:01.491Z,11.80
2018-05-09T09:00:28.879Z,11.37
2018-05-09T09:02:56.266Z,12.23
2018-05-09T09:05:23.646Z,11.03
2018-05-09T09:07:51.103Z,10.77
2018-05-09T09:10:18.519Z,11.77
2018-05-09T09:12:45.888Z,11.23
2018-05-09T09:15:13.277Z,11.70
2018-05-09T09:17:40.663Z,11.83
2018-05-09T09:20:08.047Z,11.40
2018-05-09T09:22:35.432Z,12.43
2018-05-09T09:25:02.828Z,10.53
2018-05-09T09:27:30.203Z,11.70
2018-05-09T09:29:57.599Z,10.50
2018-05-09T09:32:24.983Z,10.80
2018-05-09T09:34:52.378Z,11.83
2018-05-09T09:37:19.756Z,10.50
2018-05-09T09:39:47.652Z,11.07
2018-05-09T09:42:15.027Z,11.50
2018-05-09T09:44:42.407Z,11.10
2018-05-09T09:47:09.801Z,12.03
2018-05-09T09:49:37.183Z,11.60
2018-05-09T09:52:04.715Z,11.50
2018-05-09T09:54:32.103Z,12.70
2018-05-09T09:56:59.547Z,12.17
2018-05-09T09:59:26.934Z,12.30
2018-05-09T10:01:54.331Z,11.30
2018-05-09T10:04:21.730Z,11.30
2018-05-09T10:06:49.199Z,12.27
2018-05-09T10:09:16.583Z,12.00
2018-05-09T10:11:43.983Z,12.20
2018-05-09T10:14:11.363Z,12.17
2018-05-09T10:16:38.746Z,12.70
2018-05-09T10:19:06.141Z,12.20
2018-05-09T10:21:33.516Z,13.23
2018-05-09T10:24:00.907Z,12.00
2018-05-09T10:26:28.302Z,11.67
2018-05-09T10:28:55.684Z,11.87
2018-05-09T10:31:23.076Z,12.10
2018-05-09T10:33:50.476Z,12.20
2018-05-09T10:36:17.858Z,14.53
2018-05-09T10:38:45.246Z,12.87
2018-05-09T10:41:12.630Z,17.57
2018-05-09T10:43:40.095Z,13.93
2018-05-09T10:46:07.485Z,12.40
2018-05-09T10:48:34.863Z,12.50
2018-05-09T10:51:02.255Z,12.93
2018-05-09T10:53:29.635Z,13.60
2018-05-09T10:55:57.024Z,12.40
2018-05-09T10:58:24.425Z,13.03
2018-05-09T11:00:51.804Z,12.20
2018-05-09T11:03:19.195Z,13.47
2018-05-09T11:05:46.582Z,11.30
2018-05-09T11:08:13.967Z,11.87
2018-05-09T11:10:41.815Z,12.07
2018-05-09T11:13:09.200Z,12.50
2018-05-09T11:15:36.586Z,12.03
2018-05-09T11:18:03.979Z,12.70
2018-05-09T11:20:31.375Z,12.50
2018-05-09T11:22:58.779Z,13.47
2018-05-09T11:25:26.163Z,12.00
2018-05-09T11:27:53.555Z,12.50
2018-05-09T11:30:20.948Z,11.70
2018-05-09T11:32:48.527Z,11.83
2018-05-09T11:35:15.912Z,12.23
2018-05-09T11:37:43.295Z,11.10
2018-05-09T11:40:10.687Z,11.77
2018-05-09T11:42:38.071Z,10.93
2018-05-09T11:45:05.468Z,12.30
2018-05-09T11:47:32.931Z,11.50
2018-05-09T11:50:00.319Z,13.17
2018-05-09T11:52:27.700Z,12.63
2018-05-09T11:54:55.093Z,12.30
2018-05-09T11:57:22.472Z,12.60
2018-05-09T11:59:49.864Z,12.70
2018-05-09T12:02:17.266Z,13.33
2018-05-09T12:04:44.639Z,12.40
2018-05-09T12:07:12.028Z,11.80
2018-05-09T12:09:39.415Z,11.93
2018-05-09T12:12:06.808Z,13.17
2018-05-09T12:14:34.187Z,12.00
2018-05-09T12:17:01.575Z,12.77
2018-05-09T12:19:28.971Z,12.50
2018-05-09T12:21:56.359Z,12.13
2018-05-09T12:24:23.747Z,12.80
2018-05-09T12:26:51.140Z,11.97
2018-05-09T12:29:18.527Z,13.03
2018-05-09T12:31:45.915Z,11.57
2018-05-09T12:34:13.299Z,11.80
2018-05-09T12:36:40.686Z,11.57
2018-05-09T12:39:08.079Z,12.00
2018-05-09T12:41:35.467Z,13.27
2018-05-09T12:44:02.850Z,12.43
2018-05-09T12:46:30.235Z,12.33
2018-05-09T12:48:57.619Z,11.60
2018-05-09T12:51:25.007Z,13.80
2018-05-09T12:53:52.402Z,12.63
2018-05-09T12:56:19.776Z,13.03
2018-05-09T12:58:47.162Z,12.87
2018-05-09T13:01:14.546Z,12.50
2018-05-09T13:03:41.935Z,13.10
2018-05-09T13:06:09.327Z,14.50
2018-05-09T13:08:36.726Z,13.03
2018-05-09T13:11:04.108Z,12.83
2018-05-09T13:13:31.487Z,13.43
2018-05-09T13:15:58.878Z,13.93
2018-05-09T13:18:26.261Z,14.73
2018-05-09T13:20:53.646Z,13.73
2018-05-09T13:23:21.039Z,13.93
2018-05-09T13:25:48.477Z,12.90
2018-05-09T13:28:15.955Z,13.30
2018-05-09T13:30:43.347Z,12.70
2018-05-09T13:33:10.735Z,13.30
2018-05-09T13:35:38.121Z,12.10
2018-05-09T13:38:05.506Z,12.90
2018-05-09T13:40:33.230Z,12.60
2018-05-09T13:43:00.619Z,14.67
2018-05-09T13:45:27.995Z,13.00
2018-05-09T13:47:55.384Z,12.90
2018-05-09T13:50:22.782Z,12.90
2018-05-09T13:52:50.215Z,13.40
2018-05-09T13:55:17.603Z,13.00
2018-05-09T13:57:44.986Z,13.03
2018-05-09T14:00:12.485Z,12.73
2018-05-09T14:02:39.870Z,13.93
2018-05-09T14:05:07.283Z,13.37
2018-05-09T14:07:34.672Z,12.97
2018-05-09T14:10:02.092Z,14.23
2018-05-09T14:12:29.447Z,13.10
2018-05-09T14:14:56.839Z,12.53
2018-05-09T14:17:24.221Z,12.60
2018-05-09T14:19:51.614Z,13.67
2018-05-09T14:22:19.003Z,13.23
2018-05-09T14:24:46.401Z,12.93
2018-05-09T14:27:13.874Z,13.27
2018-05-09T14:29:41.178Z,13.00
2018-05-09T14:32:08.692Z,12.70
2018-05-09T14:34:36.040Z,12.60
2018-05-09T14:37:03.435Z,13.13
2018-05-09T14:39:30.847Z,13.47
2018-05-09T14:41:58.232Z,12.40
2018-05-09T14:44:25.629Z,12.30
2018-05-09T14:46:53.019Z,12.37
2018-05-09T14:49:20.417Z,12.90
2018-05-09T14:51:47.787Z,13.00
2018-05-09T14:54:15.175Z,12.97
2018-05-09T14:56:42.571Z,14.00
2018-05-09T14:59:09.971Z,13.87
2018-05-09T15:01:37.362Z,13.80
2018-05-09T15:04:04.747Z,13.47
2018-05-09T15:06:32.138Z,13.57
2018-05-09T15:08:59.525Z,12.33
2018-05-09T15:11:26.907Z,13.13
2018-05-09T15:13:54.308Z,12.00
2018-05-09T15:16:21.692Z,13.43
2018-05-09T15:18:49.091Z,12.20
2018-05-09T15:21:16.483Z,12.83
2018-05-09T15:23:43.867Z,13.27
2018-05-09T15:26:11.247Z,12.60
2018-05-09T15:28:38.636Z,12.73
2018-05-09T15:31:06.078Z,12.53
2018-05-09T15:33:33.512Z,12.43
2018-05-09T15:36:00.933Z,12.63
2018-05-09T15:38:28.319Z,11.83
2018-05-09T15:40:55.700Z,12.43
2018-05-09T15:43:23.084Z,12.07
2018-05-09T15:45:50.472Z,12.40
2018-05-09T15:48:17.862Z,12.70
2018-05-09T15:50:45.255Z,12.43
2018-05-09T15:53:12.634Z,11.30
2018-05-09T15:55:40.032Z,11.50
2018-05-09T15:58:07.411Z,11.70
2018-05-09T16:00:34.794Z,12.10
2018-05-09T16:03:02.180Z,11.50
2018-05-09T16:05:29.563Z,11.00
2018-05-09T16:07:56.955Z,11.83
2018-05-09T16:10:24.430Z,11.70
2018-05-09T16:12:51.730Z,12.07
2018-05-09T16:15:19.112Z,12.20
2018-05-09T16:17:46.515Z,11.93
2018-05-09T16:20:13.895Z,11.97
2018-05-09T16:22:41.345Z,12.60
2018-05-09T16:25:08.686Z,11.93
2018-05-09T16:27:36.151Z,11.33
2018-05-09T16:30:03.561Z,12.07
2018-05-09T16:32:30.943Z,11.10
2018-05-09T16:34:58.337Z,11.80
2018-05-09T16:37:25.719Z,11.33
2018-05-09T16:39:53.115Z,11.10
2018-05-09T16:42:20.501Z,11.43
2018-05-09T16:44:47.883Z,10.70
2018-05-09T16:47:15.263Z,11.67
2018-05-09T16:49:42.658Z,11.33
2018-05-09T16:52:10.040Z,11.70
2018-05-09T16:54:37.427Z,11.73
2018-05-09T16:57:04.830Z,11.87
2018-05-09T16:59:32.204Z,11.40
2018-05-09T17:01:59.603Z,11.40
2018-05-09T17:04:26.983Z,11.27
2018-05-09T17:06:54.368Z,11.90
2018-05-09T17:09:21.908Z,11.20
2018-05-09T17:11:49.291Z,11.53
2018-05-09T17:14:16.679Z,11.23
2018-05-09T17:16:44.063Z,11.40
2018-05-09T17:19:11.449Z,10.87
2018-05-09T17:24:57.259Z,12.10
2018-05-09T17:27:24.639Z,12.67
2018-05-09T17:29:52.028Z,13.20
2018-05-09T17:32:19.410Z,12.20
2018-05-09T17:34:46.804Z,12.20
2018-05-09T17:37:14.183Z,13.50
2018-05-09T17:39:41.580Z,12.80
2018-05-09T17:42:08.971Z,12.33
2018-05-09T17:44:36.359Z,13.20
2018-05-09T17:47:03.750Z,12.33
2018-05-09T17:49:31.134Z,12.20
2018-05-09T17:51:58.543Z,12.17
2018-05-09T17:54:25.935Z,12.87
2018-05-09T17:56:53.310Z,12.20
2018-05-09T17:59:20.703Z,14.20
2018-05-09T18:01:48.091Z,13.27
2018-05-09T18:04:15.480Z,12.60
2018-05-09T18:06:42.858Z,13.80
2018-05-09T18:09:10.251Z,13.40
2018-05-09T18:11:37.631Z,14.20
2018-05-09T18:14:05.383Z,14.60
2018-05-09T18:16:32.767Z,13.73
2018-05-09T18:19:00.172Z,14.70
2018-05-09T18:21:27.557Z,13.83
2018-05-09T18:23:54.927Z,15.37
2018-05-09T18:26:22.315Z,15.13
2018-05-09T18:28:49.703Z,13.30
2018-05-09T18:31:17.104Z,13.30
2018-05-09T18:33:44.487Z,13.80
2018-05-09T18:36:11.871Z,13.63
2018-05-09T18:38:39.267Z,12.93
2018-05-09T18:41:06.656Z,14.53
2018-05-09T18:43:34.045Z,13.73
2018-05-09T18:46:01.424Z,13.93
2018-05-09T18:48:28.818Z,13.70
2018-05-09T18:50:56.198Z,13.57
2018-05-09T18:53:23.587Z,13.00
2018-05-09T18:55:51.067Z,13.50
2018-05-09T18:58:18.440Z,13.33
2018-05-09T19:00:45.835Z,13.33
2018-05-09T19:03:13.214Z,14.03
2018-05-09T19:05:40.608Z,13.00
2018-05-09T19:08:08.000Z,12.43
2018-05-09T19:10:35.383Z,12.40
2018-05-09T19:13:02.771Z,12.57
2018-05-09T19:15:30.159Z,13.17
2018-05-09T19:17:57.543Z,14.10
2018-05-09T19:20:24.923Z,13.90
2018-05-09T19:22:52.336Z,12.70
2018-05-09T19:25:19.720Z,12.57
2018-05-09T19:27:47.111Z,13.43
2018-05-09T19:30:14.494Z,13.30
2018-05-09T19:32:41.902Z,13.30
2018-05-09T19:35:09.291Z,13.73
2018-05-09T19:37:36.671Z,13.40
2018-05-09T19:40:04.062Z,14.40
2018-05-09T19:42:31.451Z,13.30
2018-05-09T19:44:58.888Z,14.03
2018-05-09T19:47:26.276Z,13.30
2018-05-09T19:49:53.683Z,13.20
2018-05-09T19:52:21.055Z,13.73
2018-05-09T19:54:48.652Z,13.97
2018-05-09T19:57:16.031Z,13.80
2018-05-09T19:59:43.419Z,13.47
2018-05-09T20:02:10.811Z,14.20
2018-05-09T20:04:38.203Z,14.30
2018-05-09T20:07:05.583Z,13.57
2018-05-09T20:09:33.051Z,15.07
2018-05-09T20:12:00.440Z,13.77
2018-05-09T20:14:27.899Z,13.00
2018-05-09T20:16:55.332Z,13.60
2018-05-09T20:19:22.715Z,13.33
2018-05-09T20:21:50.271Z,14.50
2018-05-09T20:24:17.662Z,14.30
2018-05-09T20:26:45.043Z,13.40
2018-05-09T20:29:12.427Z,13.33
2018-05-09T20:31:56.599Z,13.50
2018-05-09T20:34:23.995Z,13.90
2018-05-09T20:36:51.400Z,13.33
2018-05-09T20:39:18.795Z,14.50
2018-05-09T20:41:46.179Z,13.63
2018-05-09T20:44:13.572Z,13.50
2018-05-09T20:46:40.953Z,13.40
2018-05-09T20:49:08.359Z,12.90
2018-05-09T20:51:47.363Z,14.30
2018-05-09T20:54:14.759Z,14.60
2018-05-09T20:56:42.325Z,14.40
2018-05-09T20:59:09.702Z,13.30
2018-05-09T21:01:48.992Z,13.90
2018-05-09T21:04:16.384Z,14.97
2018-05-09T21:06:43.769Z,13.70
2018-05-09T21:09:11.167Z,14.70
2018-05-09T21:11:38.531Z,15.80
2018-05-09T21:14:05.915Z,17.70
2018-05-09T21:16:33.306Z,16.37
2018-05-09T21:19:00.700Z,16.40
2018-05-09T21:21:28.103Z,15.33
2018-05-09T21:23:55.467Z,15.67
2018-05-09T21:26:22.855Z,15.10
2018-05-09T21:28:50.238Z,15.37
2018-05-09T21:31:17.626Z,16.20
2018-05-09T21:33:45.039Z,16.37
2018-05-09T21:36:12.907Z,16.07
2018-05-09T21:38:40.289Z,15.87
2018-05-09T21:41:07.666Z,15.33
2018-05-09T21:43:35.055Z,15.80
2018-05-09T21:46:02.444Z,16.90
2018-05-09T21:48:29.831Z,15.90
2018-05-09T21:50:57.215Z,15.70
2018-05-09T21:53:24.608Z,17.30
2018-05-09T21:55:52.062Z,16.53
2018-05-09T21:58:19.384Z,15.87
2018-05-09T22:00:46.763Z,17.30
2018-05-09T22:03:14.320Z,17.13
2018-05-09T22:05:41.699Z,17.00
2018-05-09T22:08:09.087Z,16.60
2018-05-09T22:10:36.474Z,16.20
2018-05-09T22:13:03.862Z,17.63
2018-05-09T22:15:31.250Z,16.30
2018-05-09T22:17:58.647Z,18.53
2018-05-09T22:20:26.036Z,17.57
2018-05-09T22:22:53.425Z,16.40
2018-05-09T22:25:20.807Z,17.17
2018-05-09T22:27:48.191Z,17.70
2018-05-09T22:30:15.948Z,17.10
2018-05-09T22:32:43.327Z,17.70
2018-05-09T22:35:10.715Z,16.93
2018-05-09T22:37:38.106Z,17.10
2018-05-09T22:40:05.482Z,19.17
2018-05-09T22:42:32.875Z,25.30
2018-05-09T22:45:00.259Z,31.43
2018-05-09T22:47:27.647Z,29.90
2018-05-09T22:49:55.031Z,34.10
2018-05-09T22:52:22.419Z,35.10
2018-05-09T22:54:49.892Z,38.17
2018-05-09T22:57:17.199Z,39.60
2018-05-09T22:59:44.579Z,39.70
2018-05-09T23:02:11.962Z,40.30
2018-05-09T23:04:39.355Z,35.70
2018-05-09T23:07:06.730Z,36.00
2018-05-09T23:09:34.183Z,35.57
2018-05-09T23:12:01.571Z,38.57
2018-05-09T23:14:28.960Z,41.40
2018-05-09T23:16:56.339Z,42.90
2018-05-09T23:19:23.735Z,42.63
2018-05-09T23:21:51.118Z,41.73
2018-05-09T23:24:18.521Z,41.50
2018-05-09T23:26:45.899Z,42.10
2018-05-09T23:29:13.279Z,41.67
2018-05-09T23:31:40.669Z,43.03
2018-05-09T23:34:08.050Z,42.77
2018-05-09T23:36:35.443Z,44.63
2018-05-09T23:39:02.823Z,44.30
2018-05-09T23:41:30.207Z,42.00
2018-05-09T23:43:57.591Z,43.50
2018-05-09T23:46:24.980Z,45.70
2018-05-09T23:48:52.362Z,45.10
2018-05-09T23:51:19.751Z,44.77
2018-05-09T23:53:47.147Z,45.20
2018-05-09T23:56:14.527Z,44.60
2018-05-09T23:58:41.922Z,43.23
